createdAt,value
2022-08-03T00:02:20.446Z,3.10
2022-08-03T00:04:50.265Z,3.00
2022-08-03T00:07:18.905Z,3.10
2022-08-03T00:09:47.201Z,2.85
2022-08-03T00:12:15.743Z,3.30
2022-08-03T00:14:44.207Z,3.10
2022-08-03T00:17:12.509Z,3.10
2022-08-03T00:19:40.804Z,3.20
2022-08-03T00:22:10.479Z,3.13
2022-08-03T00:24:38.736Z,3.25
2022-08-03T00:27:07.022Z,3.17
2022-08-03T00:29:57.332Z,3.33
2022-08-03T00:32:24.156Z,3.13
2022-08-03T00:34:58.890Z,3.20
2022-08-03T00:37:40.589Z,2.80
2022-08-03T00:40:13.455Z,3.13
2022-08-03T00:42:54.628Z,3.03
2022-08-03T00:45:25.525Z,3.10
2022-08-03T00:47:54.934Z,3.10
2022-08-03T00:50:25.354Z,3.10
2022-08-03T00:52:57.372Z,3.10
2022-08-03T00:55:26.516Z,3.10
2022-08-03T00:57:55.174Z,3.63
2022-08-03T01:00:26.923Z,3.00
2022-08-03T01:02:55.732Z,2.90
2022-08-03T01:05:24.457Z,3.05
2022-08-03T01:08:05.967Z,3.40
2022-08-03T01:10:42.872Z,3.10
2022-08-03T01:14:01.290Z,3.20
2022-08-03T01:16:35.848Z,3.38
2022-08-03T01:19:35.843Z,3.47
2022-08-03T01:22:24.455Z,3.72
2022-08-03T01:25:03.964Z,3.40
2022-08-03T01:27:49.331Z,3.50
2022-08-03T01:30:19.669Z,3.60
2022-08-03T01:33:01.157Z,3.30
2022-08-03T01:35:38.404Z,3.80
2022-08-03T01:38:12.637Z,3.55
2022-08-03T01:40:44.507Z,3.63
2022-08-03T01:44:27.144Z,3.80
2022-08-03T01:46:08.783Z,3.88
2022-08-03T01:48:39.229Z,4.00
2022-08-03T01:51:09.126Z,3.88
2022-08-03T01:53:38.956Z,3.55
2022-08-03T01:56:08.660Z,3.75
2022-08-03T01:58:38.130Z,3.97
2022-08-03T02:01:09.852Z,3.88
2022-08-03T02:03:59.485Z,3.60
2022-08-03T02:06:59.778Z,4.30
2022-08-03T02:09:23.268Z,4.70
2022-08-03T02:11:54.252Z,4.22
2022-08-03T02:14:23.828Z,3.97
2022-08-03T02:16:54.245Z,4.30
2022-08-03T02:19:24.377Z,4.22
2022-08-03T02:21:57.408Z,4.40
2022-08-03T02:24:30.412Z,4.13
2022-08-03T02:27:01.292Z,4.50
2022-08-03T02:29:39.457Z,4.50
2022-08-03T02:32:13.666Z,4.70
2022-08-03T02:34:46.242Z,5.28
2022-08-03T02:37:16.082Z,4.93
2022-08-03T02:39:46.295Z,5.15
2022-08-03T02:42:17.748Z,4.85
2022-08-03T02:44:52.023Z,5.05
2022-08-03T02:47:22.989Z,5.25
2022-08-03T02:49:54.552Z,5.00
2022-08-03T02:52:27.723Z,5.50
2022-08-03T02:55:00.993Z,5.47
2022-08-03T02:57:32.600Z,5.20
2022-08-03T03:00:02.680Z,5.53
2022-08-03T03:02:33.234Z,5.80
2022-08-03T03:05:55.137Z,5.38
2022-08-03T03:07:52.947Z,5.65
2022-08-03T03:10:23.309Z,6.13
2022-08-03T03:12:56.311Z,5.50
2022-08-03T03:15:26.797Z,5.72
2022-08-03T03:17:57.397Z,5.25
2022-08-03T03:20:29.826Z,5.90
2022-08-03T03:23:01.397Z,6.00
2022-08-03T03:25:32.562Z,5.82
2022-08-03T03:28:01.648Z,6.03
2022-08-03T03:30:30.980Z,6.40
2022-08-03T03:33:00.837Z,5.95
2022-08-03T03:35:29.693Z,6.07
2022-08-03T03:37:58.653Z,6.07
2022-08-03T03:40:27.801Z,6.30
2022-08-03T03:42:56.176Z,5.43
2022-08-03T03:45:25.682Z,5.93
2022-08-03T03:47:54.166Z,6.05
2022-08-03T03:50:25.026Z,5.80
2022-08-03T03:52:53.377Z,5.88
2022-08-03T03:55:21.648Z,5.95
2022-08-03T03:57:49.918Z,5.60
2022-08-03T04:00:20.212Z,5.47
2022-08-03T04:02:48.986Z,6.20
2022-08-03T04:05:35.145Z,5.68
2022-08-03T04:08:25.627Z,5.88
2022-08-03T04:11:06.016Z,5.80
2022-08-03T04:13:39.724Z,5.93
2022-08-03T04:16:13.300Z,6.03
2022-08-03T04:18:47.807Z,6.00
2022-08-03T04:21:20.611Z,6.18
2022-08-03T04:23:56.067Z,6.10
2022-08-03T04:26:26.518Z,5.93
2022-08-03T04:28:56.559Z,6.30
2022-08-03T04:31:27.190Z,6.00
2022-08-03T04:33:56.491Z,6.40
2022-08-03T04:36:28.698Z,5.90
2022-08-03T04:39:07.761Z,6.03
2022-08-03T04:42:07.452Z,5.80
2022-08-03T04:44:28.172Z,5.88
2022-08-03T04:46:59.029Z,6.07
2022-08-03T04:49:28.236Z,6.05
2022-08-03T04:51:56.829Z,6.00
2022-08-03T04:54:26.533Z,5.78
2022-08-03T04:56:54.782Z,5.68
2022-08-03T04:59:23.063Z,5.60
2022-08-03T05:01:51.372Z,5.68
2022-08-03T05:04:20.561Z,6.22
2022-08-03T05:06:55.043Z,5.55
2022-08-03T05:09:45.118Z,5.65
2022-08-03T05:12:14.039Z,5.90
2022-08-03T05:14:42.481Z,6.15
2022-08-03T05:17:10.847Z,5.95
2022-08-03T05:19:39.153Z,5.80
2022-08-03T05:22:07.462Z,6.22
2022-08-03T05:24:37.112Z,5.63
2022-08-03T05:27:05.505Z,5.88
2022-08-03T05:29:33.774Z,5.78
2022-08-03T05:32:08.062Z,5.82
2022-08-03T05:34:36.655Z,5.95
2022-08-03T05:37:05.055Z,5.75
2022-08-03T05:39:33.350Z,5.95
2022-08-03T05:42:03.143Z,5.65
2022-08-03T05:44:31.772Z,5.68
2022-08-03T05:47:00.301Z,5.40
2022-08-03T05:49:28.655Z,5.72
2022-08-03T05:52:00.034Z,5.60
2022-08-03T05:54:55.856Z,5.88
2022-08-03T05:57:27.402Z,5.35
2022-08-03T05:59:58.528Z,5.57
2022-08-03T06:02:28.048Z,5.60
2022-08-03T06:04:56.494Z,5.38
2022-08-03T06:07:24.840Z,5.35
2022-08-03T06:10:37.354Z,5.05
2022-08-03T06:12:43.104Z,4.60
2022-08-03T06:15:12.048Z,4.80
2022-08-03T06:17:50.526Z,4.38
2022-08-03T06:20:21.057Z,4.55
2022-08-03T06:22:50.806Z,4.70
2022-08-03T06:25:21.147Z,4.00
2022-08-03T06:27:51.128Z,4.45
2022-08-03T06:30:21.381Z,3.80
2022-08-03T06:32:52.086Z,3.90
2022-08-03T06:35:20.956Z,3.45
2022-08-03T06:37:51.682Z,3.80
2022-08-03T06:40:28.514Z,3.58
2022-08-03T06:42:58.651Z,3.45
2022-08-03T06:45:31.670Z,3.45
2022-08-03T06:48:05.638Z,2.92
2022-08-03T06:50:34.614Z,3.25
2022-08-03T06:53:03.420Z,2.80
2022-08-03T06:55:32.274Z,2.88
2022-08-03T06:58:03.627Z,2.85
2022-08-03T07:00:32.649Z,2.90
2022-08-03T07:03:00.970Z,2.85
2022-08-03T07:05:30.508Z,2.85
2022-08-03T07:07:59.254Z,2.75
2022-08-03T07:10:27.712Z,2.70
2022-08-03T07:12:56.987Z,2.85
2022-08-03T07:15:55.403Z,2.42
2022-08-03T07:18:15.201Z,2.70
2022-08-03T07:20:43.598Z,2.55
2022-08-03T07:23:18.818Z,2.70
2022-08-03T07:25:47.885Z,2.70
2022-08-03T07:28:16.372Z,2.78
2022-08-03T07:30:46.009Z,2.45
2022-08-03T07:33:15.204Z,2.97
2022-08-03T07:35:43.716Z,2.75
2022-08-03T07:38:12.043Z,2.60
2022-08-03T07:40:45.746Z,2.55
2022-08-03T07:43:14.569Z,2.80
2022-08-03T07:45:42.895Z,2.42
2022-08-03T07:48:12.820Z,2.20
2022-08-03T07:50:41.907Z,2.38
2022-08-03T07:53:10.218Z,2.30
2022-08-03T07:55:38.614Z,2.38
2022-08-03T07:58:12.198Z,2.58
2022-08-03T08:00:40.893Z,2.33
2022-08-03T08:03:10.072Z,2.50
2022-08-03T08:05:39.811Z,2.60
2022-08-03T08:08:08.812Z,2.47
2022-08-03T08:10:37.633Z,2.67
2022-08-03T08:13:06.036Z,2.70
2022-08-03T08:15:34.367Z,3.03
2022-08-03T08:18:03.572Z,3.00
2022-08-03T08:20:37.998Z,3.00
2022-08-03T08:23:20.856Z,2.92
2022-08-03T08:25:58.482Z,2.60
2022-08-03T08:28:32.303Z,2.60
2022-08-03T08:31:01.795Z,2.80
2022-08-03T08:33:48.026Z,2.53
2022-08-03T08:36:18.696Z,2.85
2022-08-03T08:38:48.585Z,2.80
2022-08-03T08:41:17.679Z,2.60
2022-08-03T08:43:46.063Z,2.50
2022-08-03T08:46:22.980Z,2.95
2022-08-03T08:48:54.080Z,3.50
2022-08-03T08:51:23.707Z,2.40
2022-08-03T08:54:13.998Z,2.53
2022-08-03T08:56:43.287Z,2.33
2022-08-03T08:59:11.783Z,2.25
2022-08-03T09:01:40.108Z,2.28
2022-08-03T09:04:09.503Z,2.63
2022-08-03T09:06:37.834Z,2.15
2022-08-03T09:09:08.275Z,2.22
2022-08-03T09:11:57.652Z,2.17
2022-08-03T09:14:36.917Z,2.05
2022-08-03T09:17:10.115Z,2.00
2022-08-03T09:20:09.181Z,2.38
2022-08-03T09:22:52.274Z,2.10
2022-08-03T09:25:25.103Z,1.90
2022-08-03T09:27:54.896Z,2.10
2022-08-03T09:30:33.781Z,2.10
2022-08-03T09:33:04.106Z,9.63
2022-08-03T09:35:54.519Z,1.90
2022-08-03T09:38:26.263Z,2.03
2022-08-03T09:40:59.510Z,2.15
2022-08-03T09:43:46.685Z,2.15
2022-08-03T09:46:15.053Z,2.00
2022-08-03T09:48:43.320Z,2.20
2022-08-03T09:51:33.129Z,1.90
2022-08-03T09:54:05.557Z,2.05
2022-08-03T09:56:45.138Z,1.95
2022-08-03T09:59:24.302Z,2.17
2022-08-03T10:01:54.940Z,1.90
2022-08-03T10:04:25.698Z,1.88
2022-08-03T10:07:07.299Z,2.00
2022-08-03T10:09:35.877Z,1.95
2022-08-03T10:12:12.895Z,1.67
2022-08-03T10:14:45.378Z,1.95
2022-08-03T10:17:14.128Z,2.20
2022-08-03T10:19:42.515Z,1.83
2022-08-03T10:22:15.794Z,2.20
2022-08-03T10:24:54.143Z,1.90
2022-08-03T10:27:24.818Z,2.28
2022-08-03T10:29:59.083Z,1.85
2022-08-03T10:32:35.322Z,1.73
2022-08-03T10:35:19.075Z,1.92
2022-08-03T10:37:57.302Z,1.90
2022-08-03T10:43:22.981Z,1.90
2022-08-03T10:45:53.066Z,2.00
2022-08-03T10:48:21.765Z,1.95
2022-08-03T10:50:51.678Z,2.28
2022-08-03T10:53:37.519Z,1.80
2022-08-03T10:56:28.626Z,2.00
2022-08-03T10:59:12.441Z,2.10
2022-08-03T11:01:58.868Z,2.03
2022-08-03T11:04:29.960Z,1.67
2022-08-03T11:07:22.890Z,1.70
2022-08-03T11:09:53.539Z,1.90
2022-08-03T11:12:29.851Z,1.83
2022-08-03T11:15:03.000Z,1.60
2022-08-03T11:17:33.781Z,1.60
2022-08-03T11:20:15.457Z,1.73
2022-08-03T11:22:54.388Z,1.90
2022-08-03T11:25:53.969Z,1.95
2022-08-03T11:28:30.524Z,1.80
2022-08-03T11:31:49.352Z,2.20
2022-08-03T11:34:19.702Z,2.10
2022-08-03T11:37:27.288Z,1.90
2022-08-03T11:39:58.408Z,2.20
2022-08-03T11:42:47.013Z,2.42
2022-08-03T11:45:16.236Z,2.38
2022-08-03T11:47:50.737Z,2.60
2022-08-03T11:50:21.672Z,2.25
2022-08-03T11:52:51.322Z,2.60
2022-08-03T11:55:22.055Z,2.30
2022-08-03T11:59:01.385Z,2.33
2022-08-03T12:00:40.604Z,2.83
2022-08-03T12:03:13.586Z,2.38
2022-08-03T12:05:51.667Z,2.65
2022-08-03T12:08:32.916Z,2.10
2022-08-03T12:11:05.737Z,2.28
2022-08-03T12:14:43.925Z,2.40
2022-08-03T12:16:31.716Z,2.30
2022-08-03T12:19:02.366Z,2.85
2022-08-03T12:21:33.179Z,2.35
2022-08-03T12:24:04.633Z,2.33
2022-08-03T12:26:56.790Z,2.10
2022-08-03T12:29:27.642Z,2.08
2022-08-03T12:31:56.435Z,2.10
2022-08-03T12:34:24.898Z,2.13
2022-08-03T12:37:01.017Z,2.90
2022-08-03T12:39:31.421Z,2.83
2022-08-03T12:41:59.981Z,2.28
2022-08-03T12:44:32.673Z,2.47
2022-08-03T12:47:01.996Z,2.22
2022-08-03T12:49:30.617Z,2.13
2022-08-03T12:52:05.489Z,2.60
2022-08-03T12:54:36.145Z,2.22
2022-08-03T12:57:06.746Z,2.50
2022-08-03T12:59:40.431Z,2.25
2022-08-03T13:02:17.695Z,2.35
2022-08-03T13:04:47.426Z,2.40
2022-08-03T13:07:19.555Z,2.30
2022-08-03T13:09:50.457Z,2.00
2022-08-03T13:12:21.282Z,2.15
2022-08-03T13:14:52.260Z,1.90
2022-08-03T13:17:20.923Z,2.70
2022-08-03T13:19:51.376Z,2.17
2022-08-03T13:22:22.788Z,2.15
2022-08-03T13:24:53.133Z,2.05
2022-08-03T13:28:01.091Z,2.72
2022-08-03T13:30:12.004Z,2.38
2022-08-03T13:32:40.900Z,2.10
2022-08-03T13:35:10.559Z,2.38
2022-08-03T13:37:40.277Z,2.08
2022-08-03T13:40:11.644Z,2.20
2022-08-03T13:45:10.493Z,2.17
2022-08-03T13:47:38.854Z,2.30
2022-08-03T13:50:07.865Z,2.65
2022-08-03T13:52:37.493Z,1.67
2022-08-03T13:55:09.383Z,2.22
2022-08-03T13:58:04.731Z,3.63
2022-08-03T14:00:28.950Z,2.50
2022-08-03T14:03:15.365Z,1.83
2022-08-03T14:05:44.421Z,1.95
2022-08-03T14:08:13.621Z,1.80
2022-08-03T14:10:45.540Z,1.98
2022-08-03T14:13:18.021Z,1.77
2022-08-03T14:15:50.219Z,1.75
2022-08-03T14:18:28.925Z,1.85
2022-08-03T14:21:06.376Z,1.83
2022-08-03T14:23:35.576Z,1.77
2022-08-03T14:26:05.580Z,1.90
2022-08-03T14:28:33.952Z,2.05
2022-08-03T14:31:04.598Z,2.00
2022-08-03T14:33:36.993Z,1.60
2022-08-03T14:36:06.339Z,1.73
2022-08-03T14:38:34.836Z,1.60
2022-08-03T14:41:04.487Z,1.75
2022-08-03T14:43:33.772Z,1.75
2022-08-03T14:46:02.693Z,1.80
2022-08-03T14:50:33.284Z,1.77
2022-08-03T14:51:19.363Z,1.98
2022-08-03T14:53:47.664Z,1.98
2022-08-03T14:56:17.379Z,1.77
2022-08-03T14:58:45.766Z,1.80
2022-08-03T15:02:02.307Z,1.70
2022-08-03T15:04:02.326Z,1.65
2022-08-03T15:06:30.653Z,1.80
2022-08-03T15:09:23.695Z,1.75
2022-08-03T15:11:48.683Z,1.88
2022-08-03T15:14:16.992Z,1.90
2022-08-03T15:16:45.275Z,1.60
2022-08-03T15:20:00.466Z,1.67
2022-08-03T15:22:01.807Z,2.08
2022-08-03T15:24:30.491Z,1.90
2022-08-03T15:27:00.309Z,1.70
2022-08-03T15:30:07.398Z,1.88
2022-08-03T15:32:16.922Z,1.70
2022-08-03T15:34:50.054Z,1.65
2022-08-03T15:37:20.690Z,2.00
2022-08-03T15:39:59.689Z,1.60
2022-08-03T15:42:31.204Z,1.92
2022-08-03T15:44:59.556Z,1.52
2022-08-03T15:47:28.079Z,1.73
2022-08-03T15:49:56.600Z,1.50
2022-08-03T15:52:24.997Z,1.88
2022-08-03T15:54:53.362Z,1.60
2022-08-03T15:57:22.492Z,1.88
2022-08-03T15:59:52.998Z,1.52
2022-08-03T16:02:21.498Z,1.30
2022-08-03T16:04:49.891Z,1.88
2022-08-03T16:07:38.210Z,1.80
2022-08-03T16:10:07.667Z,1.80
2022-08-03T16:12:35.981Z,1.77
2022-08-03T16:15:06.715Z,2.13
2022-08-03T16:17:35.031Z,2.88
2022-08-03T16:20:07.487Z,2.53
2022-08-03T16:22:44.695Z,3.53
2022-08-03T16:25:16.097Z,3.20
2022-08-03T16:28:07.303Z,4.78
2022-08-03T16:30:35.779Z,2.08
2022-08-03T16:33:04.488Z,3.08
2022-08-03T16:35:32.908Z,1.67
2022-08-03T16:38:04.390Z,1.83
2022-08-03T16:40:35.054Z,1.60
2022-08-03T16:43:18.237Z,1.70
2022-08-03T16:45:48.622Z,1.70
2022-08-03T16:48:17.393Z,1.35
2022-08-03T16:50:45.980Z,1.70
2022-08-03T16:53:16.580Z,1.50
2022-08-03T16:55:52.333Z,1.60
2022-08-03T16:58:42.664Z,1.88
2022-08-03T17:01:22.530Z,1.50
2022-08-03T17:04:01.458Z,1.50
2022-08-03T17:06:34.408Z,1.75
2022-08-03T17:11:44.047Z,1.70
2022-08-03T17:14:16.700Z,1.48
2022-08-03T17:16:52.119Z,1.50
2022-08-03T17:19:24.885Z,1.58
2022-08-03T17:22:03.944Z,1.67
2022-08-03T17:24:35.289Z,1.58
2022-08-03T17:28:51.302Z,1.75
2022-08-03T17:30:05.456Z,1.75
2022-08-03T17:32:42.885Z,1.80
2022-08-03T17:35:21.286Z,1.63
2022-08-03T17:37:58.597Z,2.05
2022-08-03T17:40:32.441Z,1.67
2022-08-03T17:44:13.736Z,1.60
2022-08-03T17:45:52.191Z,1.98
2022-08-03T17:48:25.067Z,1.70
2022-08-03T17:51:00.138Z,1.63
2022-08-03T17:53:33.498Z,1.90
2022-08-03T17:56:44.464Z,1.80
2022-08-03T17:59:15.479Z,1.80
2022-08-03T18:02:21.081Z,1.60
2022-08-03T18:05:16.708Z,1.48
2022-08-03T18:07:49.555Z,1.75
2022-08-03T18:10:28.342Z,1.80
2022-08-03T18:13:10.509Z,1.73
2022-08-03T18:15:47.235Z,1.75
2022-08-03T18:18:29.263Z,2.15
2022-08-03T18:21:09.342Z,1.85
2022-08-03T18:23:50.325Z,1.90
2022-08-03T18:26:20.111Z,1.75
2022-08-03T18:28:50.639Z,2.00
2022-08-03T18:31:59.813Z,1.92
2022-08-03T18:34:16.659Z,2.00
2022-08-03T18:36:50.584Z,2.28
2022-08-03T18:39:20.176Z,2.10
2022-08-03T18:41:49.015Z,1.92
2022-08-03T18:44:52.570Z,2.10
2022-08-03T18:47:50.666Z,1.98
2022-08-03T18:50:25.731Z,2.35
2022-08-03T18:53:16.151Z,2.03
2022-08-03T18:56:02.129Z,2.00
2022-08-03T18:58:38.921Z,2.00
2022-08-03T19:01:59.581Z,2.03
2022-08-03T19:04:12.484Z,1.98
2022-08-03T19:06:45.466Z,2.08
2022-08-03T19:09:28.393Z,2.05
2022-08-03T19:12:12.593Z,2.30
2022-08-03T19:14:57.503Z,2.30
2022-08-03T19:17:29.695Z,2.30
2022-08-03T19:19:59.683Z,2.30
2022-08-03T19:22:30.116Z,2.60
2022-08-03T19:25:02.577Z,2.60
2022-08-03T19:27:32.799Z,2.63
2022-08-03T19:30:05.830Z,2.70
2022-08-03T19:32:41.219Z,2.55
2022-08-03T19:35:19.088Z,2.85
2022-08-03T19:38:05.808Z,2.60
2022-08-03T19:40:40.236Z,3.25
2022-08-03T19:43:21.952Z,2.60
2022-08-03T19:46:06.103Z,3.17
2022-08-03T19:48:36.846Z,2.83
2022-08-03T19:51:12.331Z,2.95
2022-08-03T19:53:45.217Z,2.80
2022-08-03T19:56:16.599Z,3.00
2022-08-03T19:58:45.237Z,3.13
2022-08-03T20:01:23.205Z,3.17
2022-08-03T20:03:52.996Z,3.40
2022-08-03T20:06:24.438Z,4.10
2022-08-03T20:08:55.207Z,3.80
2022-08-03T20:11:28.668Z,3.60
2022-08-03T20:13:59.394Z,3.90
2022-08-03T20:16:27.955Z,4.10
2022-08-03T20:18:56.291Z,3.92
2022-08-03T20:21:28.635Z,3.92
2022-08-03T20:24:24.624Z,4.00
2022-08-03T20:26:57.793Z,4.55
2022-08-03T20:30:05.330Z,4.13
2022-08-03T20:32:24.832Z,4.75
2022-08-03T20:34:53.467Z,4.75
2022-08-03T20:37:21.777Z,4.20
2022-08-03T20:39:50.217Z,4.50
2022-08-03T20:42:21.454Z,4.60
2022-08-03T20:45:05.593Z,4.15
2022-08-03T20:47:36.622Z,4.65
2022-08-03T20:50:22.055Z,4.38
2022-08-03T20:52:51.207Z,5.05
2022-08-03T20:55:20.300Z,5.05
2022-08-03T20:58:10.533Z,5.53
2022-08-03T21:00:39.102Z,5.10
2022-08-03T21:03:09.032Z,5.05
2022-08-03T21:05:48.413Z,4.75
2022-08-03T21:08:23.526Z,4.95
2022-08-03T21:10:53.725Z,5.78
2022-08-03T21:13:31.148Z,4.80
2022-08-03T21:16:12.959Z,4.85
2022-08-03T21:18:49.357Z,5.35
2022-08-03T21:21:21.004Z,5.38
2022-08-03T21:23:52.548Z,5.22
2022-08-03T21:26:23.262Z,4.97
2022-08-03T21:28:55.144Z,4.80
2022-08-03T21:31:26.497Z,4.97
2022-08-03T21:33:58.264Z,4.80
2022-08-03T21:36:29.477Z,5.35
2022-08-03T21:38:58.667Z,5.20
2022-08-03T21:41:29.772Z,4.70
2022-08-03T21:43:59.934Z,5.07
2022-08-03T21:46:31.703Z,5.18
2022-08-03T21:50:04.558Z,5.13
2022-08-03T21:51:55.102Z,5.68
2022-08-03T21:54:31.372Z,5.70
2022-08-03T21:57:04.139Z,5.70
2022-08-03T21:59:38.769Z,5.50
2022-08-03T22:02:15.635Z,5.30
2022-08-03T22:04:55.481Z,5.47
2022-08-03T22:07:25.495Z,5.05
2022-08-03T22:09:55.313Z,5.45
2022-08-03T22:12:25.385Z,5.63
2022-08-03T22:15:00.171Z,6.07
2022-08-03T22:17:55.959Z,5.47
2022-08-03T22:20:19.254Z,5.53
2022-08-03T22:22:55.278Z,5.93
2022-08-03T22:25:29.969Z,5.70
2022-08-03T22:28:00.760Z,6.88
2022-08-03T22:30:31.650Z,6.85
2022-08-03T22:33:00.779Z,7.57
2022-08-03T22:35:32.313Z,7.60
2022-08-03T22:38:17.418Z,7.15
2022-08-03T22:40:48.059Z,7.05
2022-08-03T22:43:16.500Z,6.65
2022-08-03T22:46:09.921Z,6.25
2022-08-03T22:48:40.926Z,6.82
2022-08-03T22:51:10.659Z,7.18
2022-08-03T22:53:40.313Z,6.63
2022-08-03T22:56:08.810Z,6.57
2022-08-03T22:58:37.145Z,6.30
2022-08-03T23:01:09.942Z,6.63
2022-08-03T23:03:59.205Z,5.72
2022-08-03T23:06:36.009Z,6.03
2022-08-03T23:09:08.158Z,5.80
2022-08-03T23:11:40.872Z,5.97
2022-08-03T23:14:16.047Z,5.95
2022-08-03T23:16:48.181Z,5.72
2022-08-03T23:19:25.712Z,6.43
2022-08-03T23:22:02.381Z,6.20
2022-08-03T23:24:34.847Z,5.55
2022-08-03T23:27:05.766Z,5.95
2022-08-03T23:29:36.540Z,5.60
2022-08-03T23:32:07.946Z,5.75
2022-08-03T23:34:56.865Z,6.03
2022-08-03T23:37:27.006Z,5.10
2022-08-03T23:39:58.086Z,6.22
2022-08-03T23:42:27.297Z,5.72
2022-08-03T23:44:59.431Z,5.18
2022-08-03T23:47:46.292Z,5.53
2022-08-03T23:50:16.126Z,5.55
2022-08-03T23:52:57.425Z,5.22
2022-08-03T23:55:44.996Z,5.30
2022-08-03T23:58:27.429Z,4.90
